Southgate, MI (48195)

16:27 EDT 20. Srpen 2014 (GMT -0400)
Castle and Burns St. | Change Station
CLOSE
Current Station
Osobní povětrnostní stanice
Location: Southgate, MI
Nadmořská výška: 580 ft
Poblíž povětrnostní stanice

Výška 580 ft 42.21 °N, 83.19 °W | Updated 1 minute ago

Mostly Cloudy
Skoro zataženo
83.9 °F
Pocit jako 88 °F
S
0.0
Vítr proměnlivý Vítr od SZ
Gusts 0.0 mil/h

Dnes
Vysoké -- | Nízké -- °F
--% Možnost srážek
Včera
Vysoké -- | Nízké -- °F
Precip. -- inčů
6:45 AM 8:26 PM
Ubývající srpek, 19% visible
Tlak 29.87 inčů
Viditelnost 10.0 mílí
Zataženo Polojasno 4500 ft
Skoro zataženo 10000 ft
Tepelný index 88 °F
Rosný bod 69 °F
Vlhkost 61%
Dešťové srážky 0.00 inčů
Sněhová pokrývka Není k dispozici
UV záření 4.3 ze 12
Pyl 8.40 ze 12
Ozón Dobrý
PM2.5 Střední
Flu Activity Není k dispozici
METAR KDTW 201953Z 25010KT 10SM SCT045 BKN100 27/18 A2988 RMK AO2 SLP114 T02720178 $

More Conditions Fewer Conditions

Tlak 29.87 inčů
Viditelnost 10.0 mílí
Zataženo Polojasno 4500 ft
Skoro zataženo 10000 ft
Tepelný index 88 °F
Rosný bod 69 °F
Vlhkost 61%
Dešťové srážky 0.00 inčů
Sněhová pokrývka Není k dispozici
UV záření 4.3 ze 12
Pyl 8.40 ze 12
Ozón Dobrý
PM2.5 Střední
Flu Activity Není k dispozici
METAR KDTW 201953Z 25010KT 10SM SCT045 BKN100 27/18 A2988 RMK AO2 SLP114 T02720178 $

More Conditions Fewer Conditions

10-Day Weather Forecast

Almanac

Astronomie

Aug. 20, 2014 Východ Západ
Skutečný čas 06:45 EDT 20:26 EDT
Občanský soumrak 06:15 EDT 20:55 EDT
Námořní soumrak 05:39 EDT 21:31 EDT
Astronomický soumrak 05:01 EDT 22:10 EDT
Měsíc 02:22 EDT 17:12 EDT
Délka denního světla 14h 39m
Délka dne
13h 40m
Tomorrow will be 2m 36s shorter.
Ubývající srpek, 19% of the Moon is Illuminated
Dnes
Ubývající srpek
Srp 25
Nov
Zář 2
První čtvrť
Zář 8
Úplněk
Zář 15
Ubývající

Dnešní extrémy

State Highs State Lows

Community

WunderPhotos

Upload Photos

1,745,750 snímků staženo!

WunderBlogs® & News

By Dr. Jeff Masters
Director of Meteorology, Weather Underground
By Kari Strenfel
Meteorologist, Weather Underground
By Christopher C. Burt
Weather Historian, Weather Underground
August 20, 2014
August 20, 2014
August 20, 2014

Nearby

Kvalita ovzduší

  Kvalita ovzduší Index kvality ovzduší Polutant
Včera Dobrý
PM10
Včera Dobrý
OZONE
Nyní Střední
PM2.5
Nyní Dobrý
OZONE
Středa Střední
PM2.5
Středa Dobrý
OZONE
Čtvrtek Střední
PM2.5
Čtvrtek Dobrý
OZONE

Výška sněhu

Station Hloubka Nadmořská výška
Žádný nový sníh nebyl hlášen

Seizmická činnost

Město Distance Mag. Čas & datum
Žádné zemětřesení v okolí nebylo hlášeno
Minimální zobrazený rozsah je 2.5.

Pobřežní teplota vody

Lokalita Teplota
Marblehead, OH 73.0 °F

Poblíž povětrnostní stanice